Flight Track Log - Related Links

Times and Time Zones

All times are in EDT time to prevent confusion due to time zone crossing. See the AWE672 flight status page for this flight to view local times or setup timezone preferences in your user account.

Time Position Orientation Groundspeed Altitude Reporting Facility
EDT Latitude Longitude Course Direction KTS MPH feet Rate Location/Type
Tue 07:04:54 PM 37.6274 -122.3950 300° West 150 173 1,300  Level FlightAware ADS-B
Tue 07:05:15 PM 37.6347 -122.4100 301° West 152 175 2,200 1,909 Climbing FlightAware ADS-B
Tue 07:05:38 PM 37.6434 -122.4290 299° West 173 199 2,700 1,500 Climbing FlightAware ADS-B
Tue 07:05:47 PM 37.6472 -122.4379 299° West 191 220 3,000 1,667 Climbing FlightAware ADS-B
Tue 07:05:56 PM 37.6511 -122.4470 298° West 192 221 3,200 1,800 Climbing FlightAware ADS-B
Tue 07:06:07 PM 37.6560 -122.4585 299° West 210 242 3,600 2,400 Climbing FlightAware ADS-B
Tue 07:06:11 PM 37.6580 -122.4630 298° West 212 244 3,800 2,700 Climbing FlightAware ADS-B
Tue 07:06:27 PM 37.6653 -122.4810 298° West 218 251 4,500 2,842 Climbing FlightAware ADS-B
Tue 07:06:30 PM 37.6667 -122.4841 298° West 220 253 4,700 3,176 Climbing FlightAware ADS-B
Tue 07:06:44 PM 37.6723 -122.5000 294° West 219 252 5,400 3,000 Climbing FlightAware ADS-B
Tue 07:06:50 PM 37.6729 -122.5082 271° West 216 249 5,700 2,824 Climbing FlightAware ADS-B
Tue 07:07:01 PM 37.6707 -122.5210 248° West 214 246 6,200 2,625 Climbing FlightAware ADS-B
Tue 07:07:06 PM 37.6680 -122.5270 236° Southwest 214 246 6,400 4,000 Climbing FlightAware ADS-B
Tue 07:07:07 PM 37.6671 -122.5281 225° Southwest 214 246 6,600 2,571 Climbing FlightAware ADS-B
Tue 07:07:13 PM 37.6633 -122.5330 222° Southwest 215 247 6,700 2,000 Climbing FlightAware ADS-B
Tue 07:07:34 PM 37.6426 -122.5420 199° South 219 252 7,500 2,077 Climbing FlightAware ADS-B
Tue 07:07:39 PM 37.6378 -122.5440 195° South 240 276 7,600 1,333 Climbing FlightAware ADS-B
Tue 07:07:52 PM 37.6235 -122.5490 193° South 258 297 7,900 1,579 Climbing FlightAware ADS-B
Tue 07:07:58 PM 37.6160 -122.5500 185° South 265 305 8,100 3,000 Climbing FlightAware ADS-B
Tue 07:08:10 PM 37.6008 -122.5470 164° South 273 314 8,800 3,200 Climbing FlightAware ADS-B
Tue 07:08:13 PM 37.5970 -122.5460 158° South 275 316 8,900 2,400 Climbing FlightAware ADS-B
Tue 07:08:15 PM 37.5970 -122.5455 157° South 275 316 9,000 3,750 Climbing FlightAware ADS-B
Tue 07:08:29 PM 37.5797 -122.5340 152° Southeast 275 316 9,900 4,105 Climbing FlightAware ADS-B
Tue 07:08:34 PM 37.6399 -122.5432 151° Southeast 282 325 10,300 1,500 Climbing FlightAware ADS-B
Tue 07:09:01 PM 37.5405 -122.5080 152° Southeast 294 338 10,700 1,105 Climbing FlightAware ADS-B
Tue 07:09:12 PM 37.5281 -122.4998 152° Southeast 323 372 11,000 1,385 Climbing FlightAware ADS-B
Tue 07:09:27 PM 37.5064 -122.4850 151° Southeast 340 391 11,300 1,200 Climbing FlightAware ADS-B
Tue 07:09:32 PM 37.4989 -122.4790 145° Southeast 350 403 11,400 1,636 Climbing FlightAware ADS-B
Tue 07:09:38 PM 37.4913 -122.4710 137° Southeast 357 411 11,600 2,000 Climbing FlightAware ADS-B
Tue 07:09:44 PM 37.4847 -122.4620 129° Southeast 365 420 11,800 2,348 Climbing FlightAware ADS-B
Tue 07:10:01 PM 37.4673 -122.4320 126° Southeast 373 429 12,500 2,571 Climbing FlightAware ADS-B
Tue 07:10:12 PM 37.4572 -122.4152 128° Southeast 375 432 13,000 1,935 Climbing FlightAware ADS-B
Tue 07:10:32 PM 37.4338 -122.3780 128° Southeast 389 448 13,500 1,406 Climbing FlightAware ADS-B
Tue 07:11:16 PM 37.3815 -122.2970 129° Southeast 423 487 14,500 1,469 Climbing FlightAware ADS-B
Tue 07:11:21 PM 37.3763 -122.2892 129° Southeast 425 489 14,700 2,710 Climbing FlightAware ADS-B
Tue 07:11:47 PM 37.3427 -122.2370 129° Southeast 426 490 15,900 2,647 Climbing FlightAware ADS-B
Tue 07:11:55 PM 37.3330 -122.2224 129° Southeast 427 491 16,200 1,742 Climbing FlightAware ADS-B (KMIC)
Tue 07:12:18 PM 37.3043 -122.1780 129° Southeast 438 504 16,800 1,600 Climbing FlightAware ADS-B
Tue 07:12:25 PM 37.2950 -122.1642 129° Southeast 441 507 17,000 1,833 Climbing FlightAware ADS-B (KMIC)
Tue 07:12:54 PM 37.2567 -122.1060 129° Southeast 449 517 17,900 2,118 Climbing FlightAware ADS-B
Tue 07:12:59 PM 37.2502 -122.0957 129° Southeast 448 516 18,200 1,941 Climbing FlightAware ADS-B
Tue 07:13:28 PM 37.2120 -122.0370 129° Southeast 456 525 19,000 1,941 Climbing FlightAware ADS-B
Tue 07:13:33 PM 37.2051 -122.0268 129° Southeast 459 528 19,300 2,000 Climbing FlightAware ADS-B (KMIC)
Tue 07:13:58 PM 37.1701 -121.9730 129° Southeast 463 533 20,000 1,650 Climbing FlightAware ADS-B
Tue 07:14:13 PM 37.1504 -121.9433 129° Southeast 465 535 20,400 1,532 Climbing FlightAware ADS-B (KMIC)
Tue 07:15:32 PM 37.0445 -121.7825 129° Southeast 482 555 22,400 1,500 Climbing FlightAware ADS-B
Tue 07:15:53 PM 37.0103 -121.7310 130° Southeast 482 555 22,900 1,444 Climbing FlightAware ADS-B
Tue 07:16:26 PM 36.9630 -121.6590 129° Southeast 492 566 23,700 1,500 Climbing FlightAware ADS-B
Tue 07:17:05 PM 36.9048 -121.5710 130° Southeast 497 572 24,700 1,521 Climbing FlightAware ADS-B
Tue 07:17:37 PM 36.8588 -121.5020 130° Southeast 500 575 25,500 1,382 Climbing FlightAware ADS-B
Tue 07:20:29 PM 36.6020 -121.1180 1000° North 483 556 29,400 1,326 Climbing FlightAware ADS-B
Tue 07:20:47 PM 36.5759 -121.0800 130° Southeast 505 581 29,700 984 Climbing FlightAware ADS-B
Tue 07:21:30 PM 36.5144 -120.9953 130° Southeast 504 580 30,400 971 Climbing Oakland Center
Tue 07:22:32 PM 36.4228 -120.8603 130° Southeast 509 586 31,400 976 Climbing Oakland Center
Tue 07:23:33 PM 36.3317 -120.7211 129° Southeast 516 594 32,400 238 Climbing Oakland Center
Tue 07:29:15 PM 35.8062 -119.9570 131° Southeast 514 592 33,000 63 Climbing FlightAware ADS-B
Tue 07:33:05 PM 35.4473 -119.4461 131° Southeast 514 592 33,000  Level FlightAware ADS-B
Tue 07:33:45 PM 35.3860 -119.3594 131° Southeast 512 589 33,000  Level FlightAware ADS-B
Tue 07:34:31 PM 35.3143 -119.2583 131° Southeast 510 587 33,000  Level FlightAware ADS-B
Tue 07:35:11 PM 35.2514 -119.1699 131° Southeast 508 585 33,000  Level FlightAware ADS-B
Tue 07:37:36 PM 35.0298 -118.8604 131° Southeast 500 575 33,000  Level FlightAware ADS-B
Tue 07:38:24 PM 34.9624 -118.7668 131° Southeast 500 575 33,000  Level FlightAware ADS-B
Tue 07:39:00 PM 34.9122 -118.6973 131° Southeast 502 578 33,000  Level FlightAware ADS-B
Tue 07:43:17 PM 34.5193 -118.1322 118° Southeast 506 582 33,000  Level FlightAware ADS-B
Tue 07:43:54 PM 34.4919 -118.0340 107° East 503 579 33,000  Level FlightAware ADS-B
Tue 07:44:35 PM 34.4631 -117.9235 107° East 494 568 33,000  Level FlightAware ADS-B
Tue 07:45:16 PM 34.4384 -117.8283 107° East 494 568 33,000  Level FlightAware ADS-B
Tue 07:45:57 PM 34.4068 -117.7067 108° East 496 571 33,000  Level FlightAware ADS-B
Tue 07:46:31 PM 34.3846 -117.6220 108° East 499 574 33,000  Level FlightAware ADS-B (KBNG)
Tue 07:47:18 PM 34.3507 -117.4928 108° East 499 574 33,000 78 Level FlightAware ADS-B
Tue 07:47:48 PM 34.3297 -117.4127 108° East 500 575 33,100  Climbing FlightAware ADS-B (KBNG)
Tue 07:48:25 PM 34.3089 -117.3340 108° East 507 583 33,000 -78 Descending FlightAware ADS-B
Tue 07:49:05 PM 34.2752 -117.2067 108° East 507 583 33,000  Level FlightAware ADS-B
Tue 07:50:04 PM 34.2377 -117.0660 108° East 505 581 33,000  Level FlightAware ADS-B (KBNG)
Tue 07:50:36 PM 34.2117 -116.9686 108° East 507 583 33,000  Level FlightAware ADS-B (KBNG)
Tue 07:51:09 PM 34.1859 -116.8722 108° East 508 585 33,000  Level FlightAware ADS-B
Tue 07:51:42 PM 34.1618 -116.7830 108° East 506 582 33,000  Level FlightAware ADS-B (KBNG)
Tue 07:52:15 PM 34.1380 -116.6947 108° East 504 580 33,000  Level FlightAware ADS-B (KBNG)
Tue 07:52:55 PM 34.1097 -116.5903 108° East 507 583 33,000  Level FlightAware ADS-B (KBNG)
Tue 07:53:25 PM 34.0895 -116.5159 108° East 503 579 33,000  Level FlightAware ADS-B (KBNG)
Tue 07:53:55 PM 34.0697 -116.4432 108° East 499 574 33,000  Level FlightAware ADS-B (KBNG)
Tue 07:54:28 PM 34.0421 -116.3422 108° East 497 572 33,000  Level FlightAware ADS-B (KBNG)
Tue 07:55:06 PM 34.0144 -116.2413 108° East 497 572 33,000  Level FlightAware ADS-B (KBNG)
Tue 07:55:39 PM 33.9900 -116.1530 108° East 497 572 33,000  Level FlightAware ADS-B
Tue 07:56:20 PM 33.9625 -116.0532 108° East 498 573 33,000  Level FlightAware ADS-B
Tue 07:56:59 PM 33.9377 -115.9641 108° East 499 574 33,000  Level FlightAware ADS-B
Tue 07:58:02 PM 33.8856 -115.7772 109° East 501 577 33,000  Level FlightAware ADS-B
Tue 07:59:20 PM 33.8375 -115.6054 109° East 503 579 33,000  Level FlightAware ADS-B
Tue 07:59:57 PM 33.8042 -115.4917 109° East 507 583 33,000  Level Los Angeles Center
Tue 08:00:59 PM 33.7589 -115.3311 109° East 506 582 33,000  Level Los Angeles Center
Tue 08:02:01 PM 33.7139 -115.1697 108° East 507 583 33,000  Level Los Angeles Center
Tue 08:03:03 PM 33.6569 -114.9767 109° East 510 587 33,000  Level Los Angeles Center
Tue 08:04:05 PM 33.6106 -114.8172 109° East 509 586 33,000 -336 Level Los Angeles Center
Tue 08:05:08 PM 33.5728 -114.6522 105° East 512 589 32,300 -960 Descending Los Angeles Center
Tue 08:06:10 PM 33.5419 -114.4872 103° East 511 588 31,000 -1,700 Descending Los Angeles Center
Tue 08:07:08 PM 33.5175 -114.3442 102° East 500 575 28,900 -2,250 Descending Albuquerque Center
Tue 08:08:10 PM 33.4867 -114.1881 103° East 486 559 26,500 -1,902 Descending Albuquerque Center
Tue 08:09:11 PM 33.4508 -114.0086 103° East 467 537 25,000 -927 Descending Albuquerque Center
Tue 08:10:13 PM 33.4214 -113.8686 104° East 444 511 24,600 -677 Descending Albuquerque Center
Tue 08:11:15 PM 33.3861 -113.7442 109° East 401 461 23,600 -1,161 Descending Albuquerque Center
Tue 08:12:17 PM 33.3456 -113.6294 113° Southeast 381 438 22,200 -1,268 Descending Albuquerque Center
Tue 08:13:18 PM 33.2908 -113.5297 123° Southeast 365 420 21,000 -585 Descending Albuquerque Center
Tue 08:14:20 PM 33.2414 -113.4303 121° Southeast 354 407 21,000 -339 Level Albuquerque Center
Tue 08:15:22 PM 33.1914 -113.3300 121° Southeast 353 406 20,300 -1,161 Descending Albuquerque Center
Tue 08:16:24 PM 33.1789 -113.2047 97° East 334 384 18,600 -1,854 Descending Albuquerque Center
Tue 08:17:25 PM 33.2053 -113.1031 73° East 320 368 16,500 -1,268 Descending Albuquerque Center
Tue 08:18:27 PM 33.2322 -113.0014 72° East 320 368 16,000 -242 Descending Albuquerque Center
Tue 08:19:29 PM 33.2597 -112.9011 72° East 320 368 16,000 -290 Level Albuquerque Center
Tue 08:20:31 PM 33.2822 -112.7997 75° East 317 365 15,400 -488 Descending Albuquerque Center
Tue 08:21:32 PM 33.2833 -112.6964 89° East 310 357 15,000 -829 Descending Albuquerque Center
Tue 08:22:34 PM 33.2861 -112.5836 88° East 298 343 13,700 -1,113 Descending Albuquerque Center
Tue 08:23:36 PM 33.2883 -112.5033 88° East 290 334 12,700 -1,073 Descending Albuquerque Center
Tue 08:24:37 PM 33.2906 -112.4017 88° East 261 300 11,500 -1,171 Descending Albuquerque Center
Tue 08:25:39 PM 33.2950 -112.3150 86° East 261 300 10,300 -871 Descending Albuquerque Center
Tue 08:26:41 PM 33.3011 -112.2297 85° East 255 293 9,700 -532 Descending Albuquerque Center
Tue 08:27:43 PM 33.3072 -112.1494 85° East 249 287 9,200 -439 Descending Albuquerque Center
Tue 08:28:44 PM 33.3172 -112.0722 81° East 246 283 8,800 -683 Descending Albuquerque Center
Tue 08:29:46 PM 33.3364 -111.9992 73° East 233 268 7,800 -871 Descending Albuquerque Center
Tue 08:30:48 PM 33.3475 -111.9294 79° East 219 252 7,000 -390 Descending Albuquerque Center
Tue 08:31:49 PM 33.3450 -111.8428 92° East 218 251 7,000 -49 Level Albuquerque Center
Tue 08:32:51 PM 33.3444 -111.7714 91° East 218 251 6,900 -484 Descending Albuquerque Center
Tue 08:33:53 PM 33.3433 -111.7003 91° East 217 250 6,000 -435 Descending Albuquerque Center
Tue 08:34:55 PM 33.3681 -111.6447 62° Northeast 221 254 6,000 -49 Level Albuquerque Center
Tue 08:35:56 PM 33.4094 -111.6897 318° Northwest 211 243 5,900 -439 Descending Albuquerque Center
Tue 08:36:58 PM 33.4286 -111.7519 290° West 206 237 5,100 -927 Descending Albuquerque Center
Tue 08:37:59 PM 33.4292 -111.8217 271° West 209 241 4,000 -1,200 Descending Albuquerque Center
Tue 08:38:38 PM 33.4333 -111.8833 275° West 204 235 3,100 -1,152 Descending Phoenix TRACON
Tue 08:39:38 PM 33.4333 -111.9333 270° West 187 215 2,100 -1,000 Descending Phoenix TRACON

Login

Don't have an account? Register now (free) for customized features, flight alerts, and more!